sensor_id;sensor_type;location;lat;lon;timestamp;pressure;altitude;pressure_sealevel;temperature
69435;BMP180;56625;54.322;18.582;2023-07-31T00:01:07;100112.80;;;16.20
69435;BMP180;56625;54.322;18.582;2023-07-31T00:03:49;100097.20;;;16.16
69435;BMP180;56625;54.322;18.582;2023-07-31T00:06:30;100092.00;;;16.10
69435;BMP180;56625;54.322;18.582;2023-07-31T00:09:19;100085.60;;;16.10
69435;BMP180;56625;54.322;18.582;2023-07-31T00:12:14;100090.80;;;16.10
69435;BMP180;56625;54.322;18.582;2023-07-31T00:15:10;100084.60;;;16.08
69435;BMP180;56625;54.322;18.582;2023-07-31T00:18:05;100083.80;;;16.00
69435;BMP180;56625;54.322;18.582;2023-07-31T00:21:00;100083.00;;;16.00
69435;BMP180;56625;54.322;18.582;2023-07-31T00:23:55;100085.60;;;16.00
69435;BMP180;56625;54.322;18.582;2023-07-31T00:26:50;100085.60;;;15.94
69435;BMP180;56625;54.322;18.582;2023-07-31T00:29:45;100089.60;;;15.90
69435;BMP180;56625;54.322;18.582;2023-07-31T00:32:40;100088.60;;;15.90
69435;BMP180;56625;54.322;18.582;2023-07-31T00:35:35;100089.40;;;15.90
69435;BMP180;56625;54.322;18.582;2023-07-31T00:38:30;100093.40;;;15.90
69435;BMP180;56625;54.322;18.582;2023-07-31T00:41:25;100094.20;;;15.90
69435;BMP180;56625;54.322;18.582;2023-07-31T00:44:20;100091.60;;;15.90
69435;BMP180;56625;54.322;18.582;2023-07-31T00:46:56;100085.60;;;15.90
69435;BMP180;56625;54.322;18.582;2023-07-31T00:49:44;100086.20;;;15.90
69435;BMP180;56625;54.322;18.582;2023-07-31T00:52:20;100080.80;;;15.80
69435;BMP180;56625;54.322;18.582;2023-07-31T00:55:08;100079.00;;;15.80
69435;BMP180;56625;54.322;18.582;2023-07-31T00:57:45;100070.20;;;15.80
69435;BMP180;56625;54.322;18.582;2023-07-31T01:00:33;100067.20;;;15.72
69435;BMP180;56625;54.322;18.582;2023-07-31T01:03:07;100065.40;;;15.70
69435;BMP180;56625;54.322;18.582;2023-07-31T01:09:02;100054.60;;;15.70
69435;BMP180;56625;54.322;18.582;2023-07-31T01:12:02;100038.40;;;15.70
69435;BMP180;56625;54.322;18.582;2023-07-31T01:15:05;100038.60;;;15.70
69435;BMP180;56625;54.322;18.582;2023-07-31T01:17:42;100040.60;;;15.60
69435;BMP180;56625;54.322;18.582;2023-07-31T01:20:31;100039.20;;;15.60
69435;BMP180;56625;54.322;18.582;2023-07-31T01:23:26;100048.80;;;15.60
69435;BMP180;56625;54.322;18.582;2023-07-31T01:26:26;100041.40;;;15.50
69435;BMP180;56625;54.322;18.582;2023-07-31T01:29:23;100046.00;;;15.60
69435;BMP180;56625;54.322;18.582;2023-07-31T01:32:14;100046.80;;;15.62
69435;BMP180;56625;54.322;18.582;2023-07-31T01:34:51;100053.80;;;15.60
69435;BMP180;56625;54.322;18.582;2023-07-31T01:37:39;100060.40;;;15.50
69435;BMP180;56625;54.322;18.582;2023-07-31T01:40:13;100063.40;;;15.50
69435;BMP180;56625;54.322;18.582;2023-07-31T01:43:01;100062.60;;;15.50
69435;BMP180;56625;54.322;18.582;2023-07-31T01:45:35;100070.20;;;15.50
69435;BMP180;56625;54.322;18.582;2023-07-31T01:48:16;100065.80;;;15.50
69435;BMP180;56625;54.322;18.582;2023-07-31T01:51:00;100064.80;;;15.50
69435;BMP180;56625;54.322;18.582;2023-07-31T01:53:41;100071.80;;;15.40
69435;BMP180;56625;54.322;18.582;2023-07-31T01:56:22;100064.40;;;15.36
69435;BMP180;56625;54.322;18.582;2023-07-31T01:59:03;100062.40;;;15.30
69435;BMP180;56625;54.322;18.582;2023-07-31T02:01:44;100062.40;;;15.20
69435;BMP180;56625;54.322;18.582;2023-07-31T02:04:28;100066.20;;;15.16
69435;BMP180;56625;54.322;18.582;2023-07-31T02:07:09;100062.60;;;15.10
69435;BMP180;56625;54.322;18.582;2023-07-31T02:09:57;100071.40;;;15.02
69435;BMP180;56625;54.322;18.582;2023-07-31T02:12:52;100071.40;;;15.00
69435;BMP180;56625;54.322;18.582;2023-07-31T02:15:48;100073.80;;;15.00
69435;BMP180;56625;54.322;18.582;2023-07-31T02:18:42;100070.60;;;15.00
69435;BMP180;56625;54.322;18.582;2023-07-31T02:21:37;100070.60;;;15.00
69435;BMP180;56625;54.322;18.582;2023-07-31T02:24:11;100068.00;;;15.00
69435;BMP180;56625;54.322;18.582;2023-07-31T02:26:59;100064.60;;;14.90
69435;BMP180;56625;54.322;18.582;2023-07-31T02:29:33;100069.00;;;14.90
69435;BMP180;56625;54.322;18.582;2023-07-31T02:32:21;100065.60;;;14.90
69435;BMP180;56625;54.322;18.582;2023-07-31T02:34:55;100065.60;;;14.80
69435;BMP180;56625;54.322;18.582;2023-07-31T02:37:43;100064.20;;;14.80
69435;BMP180;56625;54.322;18.582;2023-07-31T02:40:17;100062.00;;;14.80
69435;BMP180;56625;54.322;18.582;2023-07-31T02:43:05;100063.00;;;14.70
69435;BMP180;56625;54.322;18.582;2023-07-31T02:45:39;100064.80;;;14.70
69435;BMP180;56625;54.322;18.582;2023-07-31T02:48:27;100070.60;;;14.70
69435;BMP180;56625;54.322;18.582;2023-07-31T02:51:01;100077.80;;;14.70
69435;BMP180;56625;54.322;18.582;2023-07-31T02:53:56;100079.60;;;14.70
69435;BMP180;56625;54.322;18.582;2023-07-31T02:56:51;100080.00;;;14.70
69435;BMP180;56625;54.322;18.582;2023-07-31T02:59:46;100071.60;;;14.70
69435;BMP180;56625;54.322;18.582;2023-07-31T03:02:41;100075.80;;;14.60
69435;BMP180;56625;54.322;18.582;2023-07-31T03:05:36;100081.20;;;14.60
69435;BMP180;56625;54.322;18.582;2023-07-31T03:08:31;100085.40;;;14.60
69435;BMP180;56625;54.322;18.582;2023-07-31T03:11:26;100085.20;;;14.60
69435;BMP180;56625;54.322;18.582;2023-07-31T03:14:21;100092.00;;;14.60
69435;BMP180;56625;54.322;18.582;2023-07-31T03:17:16;100089.20;;;14.60
69435;BMP180;56625;54.322;18.582;2023-07-31T03:20:11;100090.80;;;14.60
69435;BMP180;56625;54.322;18.582;2023-07-31T03:22:47;100091.80;;;14.60
69435;BMP180;56625;54.322;18.582;2023-07-31T03:25:34;100096.40;;;14.60
69435;BMP180;56625;54.322;18.582;2023-07-31T03:28:08;100090.00;;;14.60
69435;BMP180;56625;54.322;18.582;2023-07-31T03:30:42;100093.40;;;14.60
69435;BMP180;56625;54.322;18.582;2023-07-31T03:33:23;100093.60;;;14.60
69435;BMP180;56625;54.322;18.582;2023-07-31T03:35:57;100094.60;;;14.60
69435;BMP180;56625;54.322;18.582;2023-07-31T03:38:31;100092.00;;;14.62
69435;BMP180;56625;54.322;18.582;2023-07-31T03:41:12;100097.40;;;14.70
69435;BMP180;56625;54.322;18.582;2023-07-31T03:43:51;100094.60;;;14.80
69435;BMP180;56625;54.322;18.582;2023-07-31T03:46:29;100092.40;;;14.94
69435;BMP180;56625;54.322;18.582;2023-07-31T03:49:11;100099.60;;;15.10
69435;BMP180;56625;54.322;18.582;2023-07-31T03:51:53;100103.20;;;15.40
69435;BMP180;56625;54.322;18.582;2023-07-31T03:54:34;100098.00;;;15.70
69435;BMP180;56625;54.322;18.582;2023-07-31T03:57:08;100099.80;;;16.00
69435;BMP180;56625;54.322;18.582;2023-07-31T03:59:42;100094.80;;;16.10
69435;BMP180;56625;54.322;18.582;2023-07-31T04:02:23;100096.00;;;16.22
69435;BMP180;56625;54.322;18.582;2023-07-31T04:04:57;100092.00;;;16.32
69435;BMP180;56625;54.322;18.582;2023-07-31T04:07:31;100092.40;;;16.50
69435;BMP180;56625;54.322;18.582;2023-07-31T04:10:12;100088.60;;;16.60
69435;BMP180;56625;54.322;18.582;2023-07-31T04:12:47;100087.40;;;16.72
69435;BMP180;56625;54.322;18.582;2023-07-31T04:15:22;100083.40;;;16.80
69435;BMP180;56625;54.322;18.582;2023-07-31T04:18:12;100082.20;;;16.90
69435;BMP180;56625;54.322;18.582;2023-07-31T04:20:46;100082.20;;;16.90
69435;BMP180;56625;54.322;18.582;2023-07-31T04:23:34;100089.00;;;16.92
69435;BMP180;56625;54.322;18.582;2023-07-31T04:26:08;100087.40;;;17.00
69435;BMP180;56625;54.322;18.582;2023-07-31T04:28:58;100084.20;;;17.00
69435;BMP180;56625;54.322;18.582;2023-07-31T04:31:35;100085.60;;;17.04
69435;BMP180;56625;54.322;18.582;2023-07-31T04:34:22;100075.80;;;17.10
69435;BMP180;56625;54.322;18.582;2023-07-31T04:36:56;100074.60;;;17.20
69435;BMP180;56625;54.322;18.582;2023-07-31T04:39:44;100080.40;;;17.20
69435;BMP180;56625;54.322;18.582;2023-07-31T04:42:18;100081.00;;;17.30
69435;BMP180;56625;54.322;18.582;2023-07-31T04:45:09;100079.20;;;17.30
69435;BMP180;56625;54.322;18.582;2023-07-31T04:47:50;100082.40;;;17.30
69435;BMP180;56625;54.322;18.582;2023-07-31T04:50:31;100079.20;;;17.40
69435;BMP180;56625;54.322;18.582;2023-07-31T04:53:08;100075.40;;;17.50
69435;BMP180;56625;54.322;18.582;2023-07-31T04:55:43;100077.60;;;17.50
69435;BMP180;56625;54.322;18.582;2023-07-31T04:58:24;100076.80;;;17.60
69435;BMP180;56625;54.322;18.582;2023-07-31T05:00:58;100083.40;;;17.60
69435;BMP180;56625;54.322;18.582;2023-07-31T05:03:33;100088.20;;;17.60
69435;BMP180;56625;54.322;18.582;2023-07-31T05:06:14;100087.20;;;17.50
69435;BMP180;56625;54.322;18.582;2023-07-31T05:08:49;100083.60;;;17.50
69435;BMP180;56625;54.322;18.582;2023-07-31T05:11:37;100084.60;;;17.48
69435;BMP180;56625;54.322;18.582;2023-07-31T05:14:11;100085.20;;;17.50
69435;BMP180;56625;54.322;18.582;2023-07-31T05:16:59;100087.60;;;17.60
69435;BMP180;56625;54.322;18.582;2023-07-31T05:19:33;100086.40;;;17.60
69435;BMP180;56625;54.322;18.582;2023-07-31T05:22:21;100087.80;;;17.60
69435;BMP180;56625;54.322;18.582;2023-07-31T05:24:55;100088.40;;;17.58
69435;BMP180;56625;54.322;18.582;2023-07-31T05:27:43;100086.80;;;17.60
69435;BMP180;56625;54.322;18.582;2023-07-31T05:30:17;100086.40;;;17.70
69435;BMP180;56625;54.322;18.582;2023-07-31T05:33:05;100084.40;;;17.70
69435;BMP180;56625;54.322;18.582;2023-07-31T05:35:39;100087.40;;;17.60
69435;BMP180;56625;54.322;18.582;2023-07-31T05:38:27;100085.20;;;17.60
69435;BMP180;56625;54.322;18.582;2023-07-31T05:41:01;100085.60;;;17.60
69435;BMP180;56625;54.322;18.582;2023-07-31T05:43:49;100089.60;;;17.60
69435;BMP180;56625;54.322;18.582;2023-07-31T05:46:23;100088.00;;;17.70
69435;BMP180;56625;54.322;18.582;2023-07-31T05:49:12;100089.40;;;17.70
69435;BMP180;56625;54.322;18.582;2023-07-31T05:51:46;100089.00;;;17.70
69435;BMP180;56625;54.322;18.582;2023-07-31T05:54:34;100086.00;;;17.70
69435;BMP180;56625;54.322;18.582;2023-07-31T05:57:08;100089.20;;;17.70
69435;BMP180;56625;54.322;18.582;2023-07-31T05:59:56;100089.40;;;17.70
69435;BMP180;56625;54.322;18.582;2023-07-31T06:02:32;100093.20;;;17.80
69435;BMP180;56625;54.322;18.582;2023-07-31T06:05:20;100089.60;;;17.82
69435;BMP180;56625;54.322;18.582;2023-07-31T06:07:54;100096.40;;;17.90
69435;BMP180;56625;54.322;18.582;2023-07-31T06:10:42;100095.80;;;18.06
69435;BMP180;56625;54.322;18.582;2023-07-31T06:13:37;100097.80;;;18.20
69435;BMP180;56625;54.322;18.582;2023-07-31T06:16:32;100095.60;;;18.20
69435;BMP180;56625;54.322;18.582;2023-07-31T06:19:07;100096.60;;;18.12
69435;BMP180;56625;54.322;18.582;2023-07-31T06:21:55;100094.20;;;18.10
69435;BMP180;56625;54.322;18.582;2023-07-31T06:24:29;100096.60;;;18.20
69435;BMP180;56625;54.322;18.582;2023-07-31T06:27:17;100102.60;;;18.30
69435;BMP180;56625;54.322;18.582;2023-07-31T06:29:52;100098.80;;;18.50
69435;BMP180;56625;54.322;18.582;2023-07-31T06:32:39;100105.60;;;18.60
69435;BMP180;56625;54.322;18.582;2023-07-31T06:35:15;100097.40;;;18.52
69435;BMP180;56625;54.322;18.582;2023-07-31T06:38:02;100098.00;;;18.60
69435;BMP180;56625;54.322;18.582;2023-07-31T06:40:36;100096.80;;;18.70
69435;BMP180;56625;54.322;18.582;2023-07-31T06:43:11;100098.00;;;18.80
69435;BMP180;56625;54.322;18.582;2023-07-31T06:46:06;100095.00;;;18.80
69435;BMP180;56625;54.322;18.582;2023-07-31T06:48:41;100099.40;;;18.80
69435;BMP180;56625;54.322;18.582;2023-07-31T06:51:29;100104.80;;;18.80
69435;BMP180;56625;54.322;18.582;2023-07-31T06:54:05;100104.40;;;18.90
69435;BMP180;56625;54.322;18.582;2023-07-31T06:56:53;100104.00;;;19.00
69435;BMP180;56625;54.322;18.582;2023-07-31T06:59:27;100103.60;;;19.10
69435;BMP180;56625;54.322;18.582;2023-07-31T07:02:15;100104.60;;;19.20
69435;BMP180;56625;54.322;18.582;2023-07-31T07:04:49;100107.20;;;19.20
69435;BMP180;56625;54.322;18.582;2023-07-31T07:07:37;100112.00;;;19.20
69435;BMP180;56625;54.322;18.582;2023-07-31T07:10:12;100104.80;;;19.22
69435;BMP180;56625;54.322;18.582;2023-07-31T07:13:06;100105.80;;;19.40
69435;BMP180;56625;54.322;18.582;2023-07-31T07:16:01;100098.60;;;19.40
69435;BMP180;56625;54.322;18.582;2023-07-31T07:18:56;100093.20;;;19.46
69435;BMP180;56625;54.322;18.582;2023-07-31T07:21:51;100093.80;;;19.56
69435;BMP180;56625;54.322;18.582;2023-07-31T07:24:48;100097.60;;;19.60
69435;BMP180;56625;54.322;18.582;2023-07-31T07:27:43;100090.60;;;19.68
69435;BMP180;56625;54.322;18.582;2023-07-31T07:30:38;100089.80;;;19.80
69435;BMP180;56625;54.322;18.582;2023-07-31T07:33:33;100087.80;;;19.86
69435;BMP180;56625;54.322;18.582;2023-07-31T07:36:28;100078.40;;;20.00
69435;BMP180;56625;54.322;18.582;2023-07-31T07:39:23;100079.40;;;20.02
69435;BMP180;56625;54.322;18.582;2023-07-31T07:42:18;100078.60;;;20.12
69435;BMP180;56625;54.322;18.582;2023-07-31T07:45:13;100081.00;;;20.40
69435;BMP180;56625;54.322;18.582;2023-07-31T07:48:08;100081.60;;;20.30
69435;BMP180;56625;54.322;18.582;2023-07-31T07:51:04;100087.80;;;20.30
69435;BMP180;56625;54.322;18.582;2023-07-31T07:53:59;100083.00;;;20.20
69435;BMP180;56625;54.322;18.582;2023-07-31T07:56:54;100083.60;;;20.10
69435;BMP180;56625;54.322;18.582;2023-07-31T07:59:49;100079.00;;;20.30
69435;BMP180;56625;54.322;18.582;2023-07-31T08:02:44;100084.60;;;20.54
69435;BMP180;56625;54.322;18.582;2023-07-31T08:05:39;100079.60;;;20.70
69435;BMP180;56625;54.322;18.582;2023-07-31T08:08:35;100070.40;;;20.90
69435;BMP180;56625;54.322;18.582;2023-07-31T08:11:10;100069.60;;;21.20
69435;BMP180;56625;54.322;18.582;2023-07-31T08:13:57;100075.00;;;21.28
69435;BMP180;56625;54.322;18.582;2023-07-31T08:16:32;100072.40;;;21.40
69435;BMP180;56625;54.322;18.582;2023-07-31T08:19:19;100071.80;;;21.30
69435;BMP180;56625;54.322;18.582;2023-07-31T08:21:54;100077.80;;;21.50
69435;BMP180;56625;54.322;18.582;2023-07-31T08:24:42;100076.60;;;21.60
69435;BMP180;56625;54.322;18.582;2023-07-31T08:27:17;100071.80;;;21.72
69435;BMP180;56625;54.322;18.582;2023-07-31T08:30:05;100075.80;;;21.80
69435;BMP180;56625;54.322;18.582;2023-07-31T08:32:40;100072.40;;;21.80
69435;BMP180;56625;54.322;18.582;2023-07-31T08:35:27;100071.40;;;21.70
69435;BMP180;56625;54.322;18.582;2023-07-31T08:38:04;100076.80;;;21.42
69435;BMP180;56625;54.322;18.582;2023-07-31T08:40:39;100071.80;;;21.20
69435;BMP180;56625;54.322;18.582;2023-07-31T08:43:21;100075.20;;;21.10
69435;BMP180;56625;54.322;18.582;2023-07-31T08:46:06;100075.00;;;21.10
69435;BMP180;56625;54.322;18.582;2023-07-31T08:48:47;100073.60;;;21.00
69435;BMP180;56625;54.322;18.582;2023-07-31T08:51:29;100070.60;;;21.10
69435;BMP180;56625;54.322;18.582;2023-07-31T08:54:11;100070.60;;;21.20
69435;BMP180;56625;54.322;18.582;2023-07-31T08:56:52;100066.40;;;21.40
69435;BMP180;56625;54.322;18.582;2023-07-31T08:59:35;100065.80;;;21.60
69435;BMP180;56625;54.322;18.582;2023-07-31T09:02:17;100065.20;;;21.80
69435;BMP180;56625;54.322;18.582;2023-07-31T09:05:01;100059.20;;;22.10
69435;BMP180;56625;54.322;18.582;2023-07-31T09:07:45;100054.60;;;22.10
69435;BMP180;56625;54.322;18.582;2023-07-31T09:10:27;100053.60;;;22.10
69435;BMP180;56625;54.322;18.582;2023-07-31T09:13:10;100052.60;;;22.10
69435;BMP180;56625;54.322;18.582;2023-07-31T09:15:58;100051.20;;;22.10
69435;BMP180;56625;54.322;18.582;2023-07-31T09:18:53;100057.40;;;22.20
69435;BMP180;56625;54.322;18.582;2023-07-31T09:21:48;100055.40;;;22.40
69435;BMP180;56625;54.322;18.582;2023-07-31T09:24:32;100059.80;;;22.22
69435;BMP180;56625;54.322;18.582;2023-07-31T09:27:53;100056.20;;;22.10
69435;BMP180;56625;54.322;18.582;2023-07-31T09:30:50;100047.20;;;22.14
69435;BMP180;56625;54.322;18.582;2023-07-31T09:33:55;100056.40;;;22.30
69435;BMP180;56625;54.322;18.582;2023-07-31T09:36:45;100045.00;;;22.58
69435;BMP180;56625;54.322;18.582;2023-07-31T09:39:27;100050.00;;;22.90
69435;BMP180;56625;54.322;18.582;2023-07-31T09:42:11;100044.60;;;23.10
69435;BMP180;56625;54.322;18.582;2023-07-31T09:44:51;100043.00;;;23.06
69435;BMP180;56625;54.322;18.582;2023-07-31T09:47:32;100045.40;;;22.60
69435;BMP180;56625;54.322;18.582;2023-07-31T09:50:14;100048.00;;;22.36
69435;BMP180;56625;54.322;18.582;2023-07-31T09:52:56;100040.40;;;22.62
69435;BMP180;56625;54.322;18.582;2023-07-31T09:55:39;100043.60;;;23.00
69435;BMP180;56625;54.322;18.582;2023-07-31T09:58:21;100046.80;;;23.20
69435;BMP180;56625;54.322;18.582;2023-07-31T10:01:02;100035.40;;;22.94
69435;BMP180;56625;54.322;18.582;2023-07-31T10:03:45;100034.00;;;22.70
69435;BMP180;56625;54.322;18.582;2023-07-31T10:06:35;100017.20;;;22.78
69435;BMP180;56625;54.322;18.582;2023-07-31T10:09:15;100032.00;;;22.90
69435;BMP180;56625;54.322;18.582;2023-07-31T10:12:18;100024.40;;;22.94
69435;BMP180;56625;54.322;18.582;2023-07-31T10:15:14;100018.80;;;23.30
69435;BMP180;56625;54.322;18.582;2023-07-31T10:18:11;100011.20;;;23.50
69435;BMP180;56625;54.322;18.582;2023-07-31T10:21:07;100017.80;;;23.90
69435;BMP180;56625;54.322;18.582;2023-07-31T10:24:05;100007.80;;;23.96
69435;BMP180;56625;54.322;18.582;2023-07-31T10:27:01;100006.60;;;24.10
69435;BMP180;56625;54.322;18.582;2023-07-31T10:29:58;100010.00;;;24.10
69435;BMP180;56625;54.322;18.582;2023-07-31T10:32:54;100006.80;;;24.10
69435;BMP180;56625;54.322;18.582;2023-07-31T10:35:28;100006.00;;;23.60
69435;BMP180;56625;54.322;18.582;2023-07-31T10:38:16;100008.80;;;23.60
69435;BMP180;56625;54.322;18.582;2023-07-31T10:40:50;100013.80;;;23.72
69435;BMP180;56625;54.322;18.582;2023-07-31T10:43:38;100005.40;;;24.00
69435;BMP180;56625;54.322;18.582;2023-07-31T10:46:14;100006.00;;;24.00
69435;BMP180;56625;54.322;18.582;2023-07-31T10:49:03;100009.60;;;23.60
69435;BMP180;56625;54.322;18.582;2023-07-31T10:51:40;100003.80;;;23.44
69435;BMP180;56625;54.322;18.582;2023-07-31T10:54:28;100017.20;;;23.40
69435;BMP180;56625;54.322;18.582;2023-07-31T10:57:22;100019.40;;;23.40
69435;BMP180;56625;54.322;18.582;2023-07-31T11:00:38;100014.00;;;23.62
69435;BMP180;56625;54.322;18.582;2023-07-31T11:03:18;100023.60;;;23.70
69435;BMP180;56625;54.322;18.582;2023-07-31T11:06:06;100021.20;;;23.42
69435;BMP180;56625;54.322;18.582;2023-07-31T11:08:51;100019.60;;;23.28
69435;BMP180;56625;54.322;18.582;2023-07-31T11:11:33;100018.60;;;23.00
69435;BMP180;56625;54.322;18.582;2023-07-31T11:14:14;100017.40;;;22.90
69435;BMP180;56625;54.322;18.582;2023-07-31T11:16:55;100009.60;;;22.88
69435;BMP180;56625;54.322;18.582;2023-07-31T11:19:37;100013.60;;;23.10
69435;BMP180;56625;54.322;18.582;2023-07-31T11:22:18;100012.20;;;23.10
69435;BMP180;56625;54.322;18.582;2023-07-31T11:24:59;100016.60;;;23.30
69435;BMP180;56625;54.322;18.582;2023-07-31T11:27:41;100018.60;;;23.20
69435;BMP180;56625;54.322;18.582;2023-07-31T11:30:23;100019.00;;;22.92
69435;BMP180;56625;54.322;18.582;2023-07-31T11:33:05;100025.60;;;22.70
69435;BMP180;56625;54.322;18.582;2023-07-31T11:35:48;100020.80;;;22.40
69435;BMP180;56625;54.322;18.582;2023-07-31T11:38:31;100024.40;;;22.30
69435;BMP180;56625;54.322;18.582;2023-07-31T11:41:15;100025.20;;;22.40
69435;BMP180;56625;54.322;18.582;2023-07-31T11:44:00;100026.00;;;22.38
69435;BMP180;56625;54.322;18.582;2023-07-31T11:47:07;100027.40;;;22.30
69435;BMP180;56625;54.322;18.582;2023-07-31T11:50:10;100017.60;;;22.40
69435;BMP180;56625;54.322;18.582;2023-07-31T11:53:08;100013.20;;;22.50
69435;BMP180;56625;54.322;18.582;2023-07-31T11:56:04;100022.40;;;22.50
69435;BMP180;56625;54.322;18.582;2023-07-31T11:59:00;100014.60;;;22.40
69435;BMP180;56625;54.322;18.582;2023-07-31T12:01:37;100004.60;;;22.42
69435;BMP180;56625;54.322;18.582;2023-07-31T12:04:25;100009.40;;;22.50
69435;BMP180;56625;54.322;18.582;2023-07-31T12:07:00;100002.20;;;22.60
69435;BMP180;56625;54.322;18.582;2023-07-31T12:09:54;100009.60;;;22.70
69435;BMP180;56625;54.322;18.582;2023-07-31T12:13:06;100011.80;;;22.58
69435;BMP180;56625;54.322;18.582;2023-07-31T12:16:03;100009.20;;;22.50
69435;BMP180;56625;54.322;18.582;2023-07-31T12:18:58;100003.00;;;22.56
69435;BMP180;56625;54.322;18.582;2023-07-31T12:21:32;100000.60;;;22.50
69435;BMP180;56625;54.322;18.582;2023-07-31T12:24:20;100010.20;;;22.30
69435;BMP180;56625;54.322;18.582;2023-07-31T12:26:54;100011.40;;;22.34
69435;BMP180;56625;54.322;18.582;2023-07-31T12:29:42;100011.20;;;22.20
69435;BMP180;56625;54.322;18.582;2023-07-31T12:32:30;100003.40;;;22.20
69435;BMP180;56625;54.322;18.582;2023-07-31T12:35:10;100005.60;;;22.10
69435;BMP180;56625;54.322;18.582;2023-07-31T12:37:52;100008.60;;;21.88
69435;BMP180;56625;54.322;18.582;2023-07-31T12:40:37;100014.00;;;21.60
69435;BMP180;56625;54.322;18.582;2023-07-31T12:43:18;100013.00;;;21.40
69435;BMP180;56625;54.322;18.582;2023-07-31T12:46:00;100009.80;;;21.40
69435;BMP180;56625;54.322;18.582;2023-07-31T12:48:40;100007.40;;;21.50
69435;BMP180;56625;54.322;18.582;2023-07-31T12:51:21;100003.40;;;21.50
69435;BMP180;56625;54.322;18.582;2023-07-31T14:59:37;99924.80;;;20.56
69435;BMP180;56625;54.322;18.582;2023-07-31T15:02:08;99918.60;;;20.60
69435;BMP180;56625;54.322;18.582;2023-07-31T15:04:37;99911.80;;;20.70
69435;BMP180;56625;54.322;18.582;2023-07-31T15:07:05;99897.80;;;20.98
69435;BMP180;56625;54.322;18.582;2023-07-31T15:09:33;99901.60;;;21.16
69435;BMP180;56625;54.322;18.582;2023-07-31T15:12:01;99901.80;;;21.18
69435;BMP180;56625;54.322;18.582;2023-07-31T15:14:30;99899.20;;;20.90
69435;BMP180;56625;54.322;18.582;2023-07-31T15:17:00;99891.80;;;20.90
69435;BMP180;56625;54.322;18.582;2023-07-31T15:19:27;99882.60;;;20.96
69435;BMP180;56625;54.322;18.582;2023-07-31T15:32:25;99879.80;;;21.20
69435;BMP180;56625;54.322;18.582;2023-07-31T15:34:54;99878.60;;;21.00
69435;BMP180;56625;54.322;18.582;2023-07-31T15:37:22;99878.00;;;21.00
69435;BMP180;56625;54.322;18.582;2023-07-31T15:39:50;99875.60;;;20.92
69435;BMP180;56625;54.322;18.582;2023-07-31T15:42:18;99873.20;;;20.90
69435;BMP180;56625;54.322;18.582;2023-07-31T15:44:46;99879.40;;;20.88
69435;BMP180;56625;54.322;18.582;2023-07-31T15:47:14;99883.20;;;20.64
69435;BMP180;56625;54.322;18.582;2023-07-31T15:49:42;99884.40;;;20.60
69435;BMP180;56625;54.322;18.582;2023-07-31T15:52:10;99871.20;;;20.70
69435;BMP180;56625;54.322;18.582;2023-07-31T15:54:38;99877.20;;;20.60
69435;BMP180;56625;54.322;18.582;2023-07-31T15:57:06;99880.00;;;20.44
69435;BMP180;56625;54.322;18.582;2023-07-31T15:59:34;99876.60;;;20.26
69435;BMP180;56625;54.322;18.582;2023-07-31T16:02:02;99874.60;;;20.10
69435;BMP180;56625;54.322;18.582;2023-07-31T16:04:30;99876.20;;;20.10
69435;BMP180;56625;54.322;18.582;2023-07-31T16:06:58;99875.60;;;20.10
69435;BMP180;56625;54.322;18.582;2023-07-31T16:09:26;99873.80;;;20.18
69435;BMP180;56625;54.322;18.582;2023-07-31T16:11:55;99867.80;;;20.20
69435;BMP180;56625;54.322;18.582;2023-07-31T16:14:23;99870.20;;;20.20
69435;BMP180;56625;54.322;18.582;2023-07-31T16:16:57;99867.20;;;20.24
69435;BMP180;56625;54.322;18.582;2023-07-31T16:19:28;99861.00;;;20.20
69435;BMP180;56625;54.322;18.582;2023-07-31T16:21:57;99863.60;;;20.10
69435;BMP180;56625;54.322;18.582;2023-07-31T16:24:28;99857.00;;;20.00
69435;BMP180;56625;54.322;18.582;2023-07-31T16:26:56;99857.40;;;19.90
69435;BMP180;56625;54.322;18.582;2023-07-31T16:29:26;99860.80;;;19.82
69435;BMP180;56625;54.322;18.582;2023-07-31T16:31:54;99865.80;;;19.88
69435;BMP180;56625;54.322;18.582;2023-07-31T16:34:25;99862.60;;;19.80
69435;BMP180;56625;54.322;18.582;2023-07-31T16:36:54;99859.80;;;19.90
69435;BMP180;56625;54.322;18.582;2023-07-31T16:39:24;99855.60;;;19.90
69435;BMP180;56625;54.322;18.582;2023-07-31T16:41:52;99856.40;;;19.98
69435;BMP180;56625;54.322;18.582;2023-07-31T16:44:20;99858.40;;;19.90
69435;BMP180;56625;54.322;18.582;2023-07-31T16:46:48;99859.40;;;19.90
69435;BMP180;56625;54.322;18.582;2023-07-31T16:49:16;99859.20;;;19.82
69435;BMP180;56625;54.322;18.582;2023-07-31T16:51:44;99850.40;;;19.84
69435;BMP180;56625;54.322;18.582;2023-07-31T16:54:12;99853.80;;;19.88
69435;BMP180;56625;54.322;18.582;2023-07-31T16:56:40;99849.80;;;19.94
69435;BMP180;56625;54.322;18.582;2023-07-31T16:59:27;99851.00;;;20.14
69435;BMP180;56625;54.322;18.582;2023-07-31T17:01:55;99847.60;;;20.30
69435;BMP180;56625;54.322;18.582;2023-07-31T17:04:27;99846.20;;;20.30
69435;BMP180;56625;54.322;18.582;2023-07-31T17:06:58;99842.20;;;20.10
69435;BMP180;56625;54.322;18.582;2023-07-31T17:09:26;99837.00;;;20.10
69435;BMP180;56625;54.322;18.582;2023-07-31T17:11:55;99834.40;;;20.56
69435;BMP180;56625;54.322;18.582;2023-07-31T17:14:29;99839.20;;;20.80
69435;BMP180;56625;54.322;18.582;2023-07-31T17:16:56;99844.40;;;20.60
69435;BMP180;56625;54.322;18.582;2023-07-31T17:19:24;99832.40;;;20.34
69435;BMP180;56625;54.322;18.582;2023-07-31T17:21:52;99836.60;;;20.10
69435;BMP180;56625;54.322;18.582;2023-07-31T17:24:20;99827.20;;;20.00
69435;BMP180;56625;54.322;18.582;2023-07-31T17:26:48;99827.60;;;19.90
69435;BMP180;56625;54.322;18.582;2023-07-31T17:29:16;99821.40;;;19.82
69435;BMP180;56625;54.322;18.582;2023-07-31T17:31:44;99825.20;;;19.80